createdAt,value
2022-09-28T00:00:10.673Z,99450.59
2022-09-28T00:03:03.527Z,99458.00
2022-09-28T00:05:33.721Z,99455.34
2022-09-28T00:08:03.930Z,99452.75
2022-09-28T00:10:35.550Z,99448.28
2022-09-28T00:13:07.226Z,99450.16
2022-09-28T00:15:37.521Z,99442.91
2022-09-28T00:18:07.589Z,99445.78
2022-09-28T00:20:38.002Z,99447.75
2022-09-28T00:23:08.269Z,99439.75
2022-09-28T00:25:39.537Z,99435.47
2022-09-28T00:28:09.912Z,99435.34
2022-09-28T00:30:39.812Z,99433.44
2022-09-28T00:33:10.147Z,99427.44
2022-09-28T00:35:40.061Z,99424.78
2022-09-28T00:38:10.697Z,99422.13
2022-09-28T00:40:45.064Z,99422.06
2022-09-28T00:43:25.635Z,99423.00
2022-09-28T00:46:01.623Z,99420.25
2022-09-28T00:48:37.690Z,99408.00
2022-09-28T00:51:13.132Z,99412.50
2022-09-28T00:53:46.373Z,99407.06
2022-09-28T00:56:22.814Z,99417.03
2022-09-28T00:58:56.498Z,99412.94
2022-09-28T01:01:27.040Z,99420.88
2022-09-28T01:03:57.062Z,99415.72
2022-09-28T01:06:31.215Z,99411.88
2022-09-28T01:09:04.786Z,99408.47
2022-09-28T01:11:39.565Z,99407.56
2022-09-28T01:14:16.389Z,99404.09
2022-09-28T01:16:55.311Z,99402.41
2022-09-28T01:20:28.501Z,99406.19
2022-09-28T01:23:33.161Z,99402.81
2022-09-28T01:26:30.640Z,99401.03
2022-09-28T01:29:06.457Z,99402.81
2022-09-28T01:31:42.484Z,99408.13
2022-09-28T01:34:16.430Z,99415.28
2022-09-28T01:36:50.951Z,99411.00
2022-09-28T01:39:26.540Z,99406.31
2022-09-28T01:42:02.572Z,99396.50
2022-09-28T01:44:40.121Z,99394.84
2022-09-28T01:47:15.422Z,99394.91
2022-09-28T01:49:50.591Z,99387.94
2022-09-28T01:52:28.162Z,99394.38
2022-09-28T01:55:04.361Z,99390.94
2022-09-28T01:57:42.591Z,99385.59
2022-09-28T02:00:17.427Z,99379.41
2022-09-28T02:02:59.542Z,99379.31
2022-09-28T02:05:43.602Z,99374.88
2022-09-28T02:08:21.359Z,99382.63
2022-09-28T02:10:59.430Z,99381.59
2022-09-28T02:13:34.902Z,99380.66
2022-09-28T02:16:11.312Z,99383.50
2022-09-28T02:18:41.541Z,99379.00
2022-09-28T02:21:19.422Z,99369.38
2022-09-28T02:23:58.353Z,99366.94
2022-09-28T02:26:34.821Z,99367.66
2022-09-28T02:29:06.730Z,99366.00
2022-09-28T02:31:37.558Z,99367.84
2022-09-28T02:34:08.293Z,99359.97
2022-09-28T02:36:38.889Z,99359.84
2022-09-28T02:39:18.212Z,99360.53
2022-09-28T02:42:03.123Z,99362.31
2022-09-28T02:44:48.882Z,99358.84
2022-09-28T02:47:29.091Z,99365.88
2022-09-28T02:50:06.133Z,99356.03
2022-09-28T02:52:55.469Z,99348.22
2022-09-28T02:55:40.481Z,99347.16
2022-09-28T02:58:27.019Z,99349.09
2022-09-28T03:01:08.214Z,99362.53
2022-09-28T03:03:50.051Z,99360.63
2022-09-28T03:06:28.869Z,99361.56
2022-09-28T03:09:06.397Z,99364.28
2022-09-28T03:11:44.002Z,99357.19
2022-09-28T03:14:14.972Z,99365.06
2022-09-28T03:16:58.851Z,99365.19
2022-09-28T03:19:35.001Z,99356.31
2022-09-28T03:22:05.951Z,99364.41
2022-09-28T03:24:36.270Z,99360.75
2022-09-28T03:27:06.832Z,99356.59
2022-09-28T03:29:38.570Z,99359.13
2022-09-28T03:32:11.349Z,99356.59
2022-09-28T03:34:41.761Z,99353.03
2022-09-28T03:37:12.812Z,99354.94
2022-09-28T03:39:43.201Z,99347.72
2022-09-28T03:42:13.120Z,99341.53
2022-09-28T03:44:47.670Z,99339.84
2022-09-28T03:47:19.761Z,99345.03
2022-09-28T03:49:50.093Z,99337.84
2022-09-28T03:52:20.140Z,99336.44
2022-09-28T03:54:50.022Z,99333.72
2022-09-28T03:57:20.268Z,99334.59
2022-09-28T03:59:50.472Z,99325.69
2022-09-28T04:02:22.154Z,99327.34
2022-09-28T04:04:52.570Z,99324.84
2022-09-28T04:07:23.179Z,99322.13
2022-09-28T04:09:53.361Z,99313.38
2022-09-28T04:12:23.513Z,99317.59
2022-09-28T04:14:53.600Z,99313.31
2022-09-28T04:17:25.479Z,99309.03
2022-09-28T04:19:55.719Z,99309.13
2022-09-28T04:22:44.681Z,99315.31
2022-09-28T04:25:14.710Z,99306.47
2022-09-28T04:28:02.001Z,99302.25
2022-09-28T04:30:33.791Z,99304.91
2022-09-28T04:33:06.126Z,99300.59
2022-09-28T04:35:36.080Z,99284.66
2022-09-28T04:38:06.410Z,99298.78
2022-09-28T04:40:36.847Z,99292.47
2022-09-28T04:43:07.121Z,99297.78
2022-09-28T04:45:37.926Z,99296.09
2022-09-28T04:48:13.795Z,99298.72
2022-09-28T04:51:07.762Z,99298.66
2022-09-28T04:53:38.158Z,99292.47
2022-09-28T04:56:10.027Z,99295.28
2022-09-28T04:58:42.660Z,99294.34
2022-09-28T05:01:15.588Z,99291.84
2022-09-28T05:04:13.576Z,99292.50
2022-09-28T05:06:57.868Z,99289.00
2022-09-28T05:09:28.219Z,99289.84
2022-09-28T05:11:58.420Z,99291.59
2022-09-28T05:14:29.095Z,99294.34
2022-09-28T05:16:59.353Z,99289.84
2022-09-28T05:19:30.968Z,99291.75
2022-09-28T05:22:06.488Z,99291.50
2022-09-28T05:24:41.291Z,99289.06
2022-09-28T05:27:12.329Z,99289.97
2022-09-28T05:29:42.482Z,99285.53
2022-09-28T05:32:21.558Z,99289.19
2022-09-28T05:35:22.720Z,99288.13
2022-09-28T05:37:53.432Z,99284.47
2022-09-28T05:40:24.145Z,99289.84
2022-09-28T05:42:54.586Z,99286.25
2022-09-28T05:45:24.958Z,99287.13
2022-09-28T05:47:55.348Z,99288.72
2022-09-28T05:50:27.501Z,99248.84
2022-09-28T05:53:04.681Z,99286.13
2022-09-28T05:55:36.943Z,99288.78
2022-09-28T05:58:15.246Z,99278.28
2022-09-28T06:00:46.062Z,99287.84
2022-09-28T06:03:17.182Z,99289.59
2022-09-28T06:05:49.199Z,99286.03
2022-09-28T06:08:19.745Z,99284.25
2022-09-28T06:11:02.238Z,99287.91
2022-09-28T06:13:35.490Z,99286.19
2022-09-28T06:16:08.104Z,99287.38
2022-09-28T06:18:38.671Z,99279.88
2022-09-28T06:21:27.632Z,99281.16
2022-09-28T06:23:58.980Z,99288.06
2022-09-28T06:26:29.861Z,99282.09
2022-09-28T06:29:01.246Z,99286.81
2022-09-28T06:31:32.089Z,99286.59
2022-09-28T06:34:02.819Z,99274.88
2022-09-28T06:36:34.640Z,99276.66
2022-09-28T06:39:05.819Z,99274.28
2022-09-28T06:41:37.753Z,99272.34
2022-09-28T06:44:17.620Z,99269.47
2022-09-28T06:47:07.111Z,99275.63
2022-09-28T06:49:55.561Z,99278.31
2022-09-28T06:52:55.524Z,99272.06
2022-09-28T06:55:48.686Z,99274.06
2022-09-28T06:58:20.604Z,99279.44
2022-09-28T07:00:53.479Z,99282.06
2022-09-28T07:03:24.557Z,99289.06
2022-09-28T07:06:14.572Z,99283.69
2022-09-28T07:09:32.446Z,99278.22
2022-09-28T07:12:23.454Z,99286.34
2022-09-28T07:14:57.816Z,99286.28
2022-09-28T07:17:32.336Z,99292.22
2022-09-28T07:20:16.525Z,99285.25
2022-09-28T07:22:55.711Z,99285.31
2022-09-28T07:25:30.489Z,99287.81
2022-09-28T07:28:20.637Z,99286.72
2022-09-28T07:31:11.476Z,99285.19
2022-09-28T07:34:23.882Z,99290.34
2022-09-28T07:37:16.479Z,99294.66
2022-09-28T07:40:05.199Z,99299.75
2022-09-28T07:42:39.808Z,99298.75
2022-09-28T07:45:11.721Z,99254.50
2022-09-28T07:47:42.108Z,99291.66
2022-09-28T07:50:25.894Z,99292.34
2022-09-28T07:53:06.980Z,99300.97
2022-09-28T07:55:53.770Z,99297.44
2022-09-28T07:58:51.724Z,99303.25
2022-09-28T08:01:44.819Z,99298.03
2022-09-28T08:04:17.456Z,99307.91
2022-09-28T08:06:49.708Z,99301.75
2022-09-28T08:09:21.553Z,99300.75
2022-09-28T08:12:18.654Z,99300.81
2022-09-28T08:15:12.455Z,99294.38
2022-09-28T08:18:03.140Z,99308.06
2022-09-28T08:20:52.221Z,99301.88
2022-09-28T08:23:23.779Z,99301.44
2022-09-28T08:25:55.546Z,99297.16
2022-09-28T08:28:26.979Z,99303.63
2022-09-28T08:31:03.457Z,99301.03
2022-09-28T08:34:05.646Z,99298.88
2022-09-28T08:36:54.319Z,99300.59
2022-09-28T08:39:44.878Z,99312.06
2022-09-28T08:42:45.229Z,99314.16
2022-09-28T08:45:36.218Z,99319.97
2022-09-28T08:48:56.348Z,99319.09
2022-09-28T08:51:56.778Z,99326.31
2022-09-28T08:54:44.579Z,99318.81
2022-09-28T08:57:24.841Z,99323.78
2022-09-28T08:59:57.318Z,99326.25
2022-09-28T09:02:36.621Z,99320.47
2022-09-28T09:05:36.201Z,99318.66
2022-09-28T09:08:33.018Z,99318.34
2022-09-28T09:11:15.771Z,99323.56
2022-09-28T09:14:15.901Z,99323.03
2022-09-28T09:17:00.437Z,99322.97
2022-09-28T09:19:56.219Z,99330.56
2022-09-28T09:22:42.398Z,99338.91
2022-09-28T09:25:21.729Z,99332.81
2022-09-28T09:28:13.051Z,99337.97
2022-09-28T09:30:55.572Z,99339.91
2022-09-28T09:33:48.039Z,99336.84
2022-09-28T09:37:01.306Z,99335.06
2022-09-28T09:40:07.991Z,99328.97
2022-09-28T09:43:18.419Z,99333.34
2022-09-28T09:46:07.849Z,99343.69
2022-09-28T09:49:06.158Z,99326.88
2022-09-28T09:51:44.693Z,99330.47
2022-09-28T09:54:20.670Z,99327.41
2022-09-28T09:56:58.409Z,99333.38
2022-09-28T09:59:47.601Z,99335.44
2022-09-28T10:02:28.197Z,99334.91
2022-09-28T10:05:19.419Z,99336.53
2022-09-28T10:07:56.600Z,99342.50
2022-09-28T10:10:31.234Z,99352.53
2022-09-28T10:13:12.501Z,99336.00
2022-09-28T10:15:43.920Z,99333.97
2022-09-28T10:18:23.567Z,99337.78
2022-09-28T10:21:15.897Z,99348.31
2022-09-28T10:23:58.590Z,99345.69
2022-09-28T10:26:36.531Z,99345.47
2022-09-28T10:29:16.673Z,99346.25
2022-09-28T10:31:50.121Z,99354.91
2022-09-28T10:34:32.831Z,99355.34
2022-09-28T10:37:12.722Z,99352.59
2022-09-28T10:40:03.496Z,99350.03
2022-09-28T10:42:37.740Z,99358.53
2022-09-28T10:45:23.600Z,99363.09
2022-09-28T10:47:56.110Z,99363.28
2022-09-28T10:50:28.288Z,99366.97
2022-09-28T10:53:21.486Z,99366.03
2022-09-28T10:56:23.050Z,99369.16
2022-09-28T10:59:02.877Z,99365.97
2022-09-28T11:01:47.441Z,99365.00
2022-09-28T11:04:25.879Z,99364.16
2022-09-28T11:09:45.226Z,99368.94
2022-09-28T11:12:20.146Z,99368.97
2022-09-28T11:14:57.528Z,99373.00
2022-09-28T11:17:31.619Z,99371.66
2022-09-28T11:20:27.054Z,99370.00
2022-09-28T11:23:00.799Z,99371.53
2022-09-28T11:25:37.081Z,99371.22
2022-09-28T11:28:08.066Z,99373.41
2022-09-28T11:30:52.123Z,99369.50
2022-09-28T11:33:42.102Z,99370.00
2022-09-28T11:36:33.529Z,99367.72
2022-09-28T11:39:12.265Z,99359.78
2022-09-28T11:42:11.923Z,99364.44
2022-09-28T11:44:49.695Z,99354.97
2022-09-28T11:47:46.798Z,99360.41
2022-09-28T11:50:27.557Z,99360.47
2022-09-28T11:53:11.806Z,99349.66
2022-09-28T11:55:46.937Z,99360.25
2022-09-28T11:58:24.870Z,99358.25
2022-09-28T12:01:01.144Z,99352.19
2022-09-28T12:03:50.670Z,99340.19
2022-09-28T12:06:27.680Z,99348.28
2022-09-28T12:09:09.514Z,99343.94
2022-09-28T12:12:25.564Z,99349.19
2022-09-28T12:15:02.606Z,99340.19
2022-09-28T12:17:38.075Z,99354.66
2022-09-28T12:20:20.788Z,99350.28
2022-09-28T12:23:04.268Z,99355.94
2022-09-28T12:25:43.698Z,99359.13
2022-09-28T12:28:24.495Z,99348.75
2022-09-28T12:30:56.088Z,99348.88
2022-09-28T12:33:25.824Z,99344.97
2022-09-28T12:36:08.704Z,99354.59
2022-09-28T12:39:15.102Z,99348.53
2022-09-28T12:42:01.993Z,99349.06
2022-09-28T12:44:48.858Z,99340.81
2022-09-28T12:47:47.576Z,99346.22
2022-09-28T12:50:39.921Z,99350.44
2022-09-28T12:53:31.549Z,99352.09
2022-09-28T12:56:06.779Z,99351.03
2022-09-28T12:59:03.298Z,99358.00
2022-09-28T13:01:55.146Z,99353.28
2022-09-28T13:04:55.188Z,99356.88
2022-09-28T13:07:35.364Z,99351.41
2022-09-28T13:10:17.105Z,99350.09
2022-09-28T13:13:00.029Z,99347.22
2022-09-28T13:15:41.872Z,99357.59
2022-09-28T13:18:16.480Z,99356.59
2022-09-28T13:21:16.279Z,99355.75
2022-09-28T13:23:48.932Z,99355.38
2022-09-28T13:26:27.442Z,99358.34
2022-09-28T13:29:06.827Z,99360.84
2022-09-28T13:31:41.316Z,99366.25
2022-09-28T13:34:23.277Z,99364.31
2022-09-28T13:37:27.760Z,99370.50
2022-09-28T13:39:59.415Z,99367.63
2022-09-28T13:43:07.001Z,99365.75
2022-09-28T13:45:59.165Z,99367.34
2022-09-28T13:48:44.780Z,99369.13
2022-09-28T13:51:47.509Z,99373.41
2022-09-28T13:54:41.352Z,99372.75
2022-09-28T13:57:25.491Z,99374.75
2022-09-28T14:00:10.762Z,99381.78
2022-09-28T14:02:49.781Z,99380.28
2022-09-28T14:06:06.260Z,99378.69
2022-09-28T14:08:45.647Z,99382.53
2022-09-28T14:11:44.913Z,99388.16
2022-09-28T14:14:30.921Z,99388.00
2022-09-28T14:17:50.769Z,99386.63
2022-09-28T14:20:26.900Z,99390.44
2022-09-28T14:23:46.097Z,99383.75
2022-09-28T14:26:43.141Z,99392.94
2022-09-28T14:29:28.898Z,99401.09
2022-09-28T14:32:00.371Z,99397.06
2022-09-28T14:34:37.070Z,99357.19
2022-09-28T14:37:39.959Z,99400.97
2022-09-28T14:40:38.442Z,99406.28
2022-09-28T14:43:25.039Z,99405.72
2022-09-28T14:46:31.303Z,99406.91
2022-09-28T14:49:03.988Z,99405.06
2022-09-28T14:52:04.590Z,99415.75
2022-09-28T14:54:51.522Z,99410.56
2022-09-28T14:57:25.631Z,99416.00
2022-09-28T14:59:57.510Z,99425.38
2022-09-28T15:02:32.859Z,99428.06
2022-09-28T15:05:15.173Z,99426.34
2022-09-28T15:07:52.361Z,99428.13
2022-09-28T15:10:32.579Z,99438.78
2022-09-28T15:13:05.878Z,99430.00
2022-09-28T15:15:39.361Z,99430.00
2022-09-28T15:18:42.849Z,99427.44
2022-09-28T15:21:13.838Z,99424.97
2022-09-28T15:23:47.702Z,99432.81
2022-09-28T15:26:33.127Z,99433.00
2022-09-28T15:29:05.587Z,99423.50
2022-09-28T15:31:38.599Z,99433.31
2022-09-28T15:34:45.946Z,99429.91
2022-09-28T15:37:20.659Z,99438.88
2022-09-28T15:39:52.270Z,99424.84
2022-09-28T15:42:25.375Z,99433.69
2022-09-28T15:45:26.049Z,99439.09
2022-09-28T15:48:23.946Z,99446.34
2022-09-28T15:51:18.128Z,99437.66
2022-09-28T15:54:00.987Z,99439.56
2022-09-28T15:56:32.994Z,99436.19
2022-09-28T15:59:27.010Z,99444.03
2022-09-28T16:02:16.270Z,99444.31
2022-09-28T16:04:51.400Z,99445.47
2022-09-28T16:07:27.903Z,99454.66
2022-09-28T16:10:10.168Z,99447.66
2022-09-28T16:12:48.545Z,99451.53
2022-09-28T16:15:24.017Z,99445.63
2022-09-28T16:17:57.329Z,99451.25
2022-09-28T16:20:34.397Z,99453.19
2022-09-28T16:23:20.091Z,99455.19
2022-09-28T16:25:53.510Z,99451.03
2022-09-28T16:28:49.259Z,99458.13
2022-09-28T16:31:34.807Z,99460.22
2022-09-28T16:34:21.559Z,99461.66
2022-09-28T16:36:52.750Z,99474.44
2022-09-28T16:39:23.019Z,99464.03
2022-09-28T16:41:56.702Z,99470.00
2022-09-28T16:44:30.490Z,99465.63
2022-09-28T16:47:01.950Z,99472.41
2022-09-28T16:49:33.687Z,99472.59
2022-09-28T16:52:03.983Z,99471.00
2022-09-28T16:54:51.838Z,99472.19
2022-09-28T16:57:22.019Z,99472.56
2022-09-28T16:59:52.409Z,99467.75
2022-09-28T17:05:17.393Z,99468.59
2022-09-28T17:07:48.437Z,99471.56
2022-09-28T17:10:24.971Z,99465.81
2022-09-28T17:12:55.159Z,99471.56
2022-09-28T17:15:26.368Z,99470.00
2022-09-28T17:17:57.999Z,99468.38
2022-09-28T17:20:31.801Z,99471.38
2022-09-28T17:23:01.940Z,99460.03
2022-09-28T17:25:32.796Z,99470.81
2022-09-28T17:28:03.891Z,99462.38
2022-09-28T17:30:34.441Z,99466.19
2022-09-28T17:33:06.203Z,99469.84
2022-09-28T17:35:39.716Z,99464.63
2022-09-28T17:38:11.460Z,99466.44
2022-09-28T17:40:42.315Z,99470.88
2022-09-28T17:43:12.806Z,99471.16
2022-09-28T17:45:43.191Z,99466.06
2022-09-28T17:48:20.105Z,99469.03
2022-09-28T17:50:51.652Z,99471.88
2022-09-28T17:53:21.875Z,99475.66
2022-09-28T17:55:52.431Z,99480.16
2022-09-28T17:58:24.043Z,99481.94
2022-09-28T18:00:58.919Z,99473.97
2022-09-28T18:03:33.201Z,99478.28
2022-09-28T18:06:07.060Z,99475.69
2022-09-28T18:08:39.404Z,99480.03
2022-09-28T18:11:11.090Z,99475.88
2022-09-28T18:13:42.663Z,99474.34
2022-09-28T18:16:16.780Z,99478.00
2022-09-28T18:18:49.510Z,99485.13
2022-09-28T18:21:20.630Z,99484.59
2022-09-28T18:23:52.050Z,99484.72
2022-09-28T18:26:22.840Z,99488.31
2022-09-28T18:28:56.741Z,99486.66
2022-09-28T18:31:28.041Z,99484.97
2022-09-28T18:34:02.439Z,99477.00
2022-09-28T18:36:36.108Z,99495.50
2022-09-28T18:39:06.541Z,99491.22
2022-09-28T18:41:37.030Z,99491.25
2022-09-28T18:44:07.636Z,99488.41
2022-09-28T18:46:38.451Z,99491.94
2022-09-28T18:49:10.784Z,99485.78
2022-09-28T18:51:41.298Z,99492.94
2022-09-28T18:54:11.393Z,99493.09
2022-09-28T18:56:41.430Z,99493.06
2022-09-28T18:59:12.728Z,99491.25
2022-09-28T19:01:43.815Z,99490.38
2022-09-28T19:04:16.318Z,99488.66
2022-09-28T19:06:53.730Z,99494.75
2022-09-28T19:09:28.057Z,99485.91
2022-09-28T19:11:59.268Z,99493.03
2022-09-28T19:14:30.151Z,99500.16
2022-09-28T19:17:00.462Z,99502.22
2022-09-28T19:19:35.713Z,99500.53
2022-09-28T19:22:08.728Z,99503.16
2022-09-28T19:24:43.345Z,99495.31
2022-09-28T19:27:14.539Z,99499.75
2022-09-28T19:29:45.715Z,99507.75
2022-09-28T19:32:16.838Z,99493.72
2022-09-28T19:34:48.897Z,99505.94
2022-09-28T19:37:19.932Z,99495.31
2022-09-28T19:39:52.076Z,99502.28
2022-09-28T19:42:23.618Z,99502.41
2022-09-28T19:44:54.047Z,99500.63
2022-09-28T19:47:24.899Z,99507.94
2022-09-28T19:49:57.648Z,99506.19
2022-09-28T19:52:28.260Z,99518.44
2022-09-28T19:55:02.535Z,99516.56
2022-09-28T19:57:50.949Z,99510.53
2022-09-28T20:00:21.622Z,99513.28
2022-09-28T20:02:51.988Z,99512.38
2022-09-28T20:05:46.160Z,99515.00
2022-09-28T20:08:22.284Z,99515.78
2022-09-28T20:10:54.908Z,99509.75
2022-09-28T20:13:34.977Z,99518.53
2022-09-28T20:16:09.491Z,99515.97
2022-09-28T20:18:48.758Z,99514.25
2022-09-28T20:21:26.003Z,99523.09
2022-09-28T20:24:12.628Z,99456.97
2022-09-28T20:26:42.780Z,99513.41
2022-09-28T20:29:19.647Z,99514.28
2022-09-28T20:31:54.666Z,99512.38
2022-09-28T20:34:28.039Z,99519.28
2022-09-28T20:37:00.286Z,99510.56
2022-09-28T20:39:30.437Z,99507.84
2022-09-28T20:42:00.889Z,99511.38
2022-09-28T20:44:31.188Z,99512.28
2022-09-28T20:47:04.368Z,99513.28
2022-09-28T20:49:50.329Z,99510.63
2022-09-28T20:52:25.069Z,99507.97
2022-09-28T20:54:59.080Z,99506.31
2022-09-28T20:57:33.885Z,99514.25
2022-09-28T21:00:04.421Z,99516.78
2022-09-28T21:02:41.784Z,99527.31
2022-09-28T21:05:18.288Z,99535.91
2022-09-28T21:07:58.087Z,99529.59
2022-09-28T21:10:30.699Z,99533.03
2022-09-28T21:13:09.624Z,99483.34
2022-09-28T21:15:40.166Z,99533.84
2022-09-28T21:18:14.367Z,99532.09
2022-09-28T21:21:01.091Z,99530.41
2022-09-28T21:23:39.824Z,99533.19
2022-09-28T21:26:20.686Z,99540.97
2022-09-28T21:28:55.155Z,99538.28
2022-09-28T21:31:34.342Z,99541.97
2022-09-28T21:34:04.984Z,99542.88
2022-09-28T21:36:34.973Z,99537.56
2022-09-28T21:39:10.219Z,99535.72
2022-09-28T21:41:45.367Z,99538.53
2022-09-28T21:44:29.007Z,99539.50
2022-09-28T21:47:05.360Z,99536.75
2022-09-28T21:49:35.838Z,99540.22
2022-09-28T21:52:05.794Z,99536.81
2022-09-28T21:54:37.677Z,99542.00
2022-09-28T21:57:12.797Z,99534.06
2022-09-28T21:59:44.165Z,99543.69
2022-09-28T22:02:14.273Z,99545.56
2022-09-28T22:04:44.286Z,99552.63
2022-09-28T22:07:14.603Z,99543.81
2022-09-28T22:09:49.425Z,99549.00
2022-09-28T22:12:29.613Z,99550.69
2022-09-28T22:14:59.598Z,99548.00
2022-09-28T22:17:29.904Z,99553.94
2022-09-28T22:19:59.835Z,99547.63
2022-09-28T22:22:30.166Z,99553.63
2022-09-28T22:25:02.254Z,99552.72
2022-09-28T22:27:45.175Z,99556.97
2022-09-28T22:30:56.649Z,99559.72
2022-09-28T22:33:31.871Z,99559.81
2022-09-28T22:36:12.130Z,99558.09
2022-09-28T22:38:42.775Z,99560.66
2022-09-28T22:41:27.365Z,99557.97
2022-09-28T22:47:09.841Z,99562.25
2022-09-28T22:49:57.080Z,99556.03
2022-09-28T22:52:28.722Z,99558.59
2022-09-28T22:55:23.824Z,99560.25
2022-09-28T22:58:00.451Z,99565.50
2022-09-28T23:00:37.141Z,99566.25
2022-09-28T23:03:11.995Z,99572.44
2022-09-28T23:05:42.593Z,99569.84
2022-09-28T23:08:19.571Z,99573.53
2022-09-28T23:10:55.054Z,99571.09
2022-09-28T23:13:31.471Z,99578.25
2022-09-28T23:16:04.245Z,99581.81
2022-09-28T23:18:41.333Z,99578.34
2022-09-28T23:21:26.087Z,99577.66
2022-09-28T23:24:01.343Z,99573.31
2022-09-28T23:26:38.669Z,99575.91
2022-09-28T23:29:19.556Z,99560.22
2022-09-28T23:31:50.015Z,99583.88
2022-09-28T23:34:20.339Z,99591.84
2022-09-28T23:36:50.392Z,99582.97
2022-09-28T23:39:23.151Z,99584.75
2022-09-28T23:41:53.031Z,99576.66
2022-09-28T23:44:25.639Z,99579.16
2022-09-28T23:46:57.755Z,99575.63
2022-09-28T23:49:28.892Z,99583.59
2022-09-28T23:52:02.566Z,99584.59
2022-09-28T23:54:32.970Z,99582.06
2022-09-28T23:57:06.291Z,99588.25
2022-09-28T23:59:50.970Z,99535.22
